Time;durP1;ratioP1;P1;durP2;ratioP2;P2;SDS_P1;SDS_P2;PMS_P1;PMS_P2;Temp;Humidity;BMP_temperature;BMP_pressure;BME280_temperature;BME280_humidity;BME280_pressure;Samples;Min_cycle;Max_cycle;Signal;HPM_P1;HPM_P2
2024/01/13 00:02:12;;;;;;;31.63;20.90;;;1.20;1.00;;;-0.84;100.00;101767.00;5027443;28;20079;-78
2024/01/13 00:04:39;;;;;;;35.22;21.15;;;1.10;1.00;;;-0.56;100.00;101813.06;5014535;28;20048;-78
2024/01/13 00:07:06;;;;;;;29.10;18.77;;;1.10;1.00;;;-0.49;100.00;101840.97;5001160;28;20081;-78
2024/01/13 00:09:33;;;;;;;32.13;19.60;;;1.10;1.00;;;-0.56;100.00;101823.41;4996039;28;20087;-78
2024/01/13 00:12:02;;;;;;;32.60;18.95;;;1.00;1.00;;;-0.93;100.00;101770.94;4999104;28;20113;-78
2024/01/13 00:14:31;;;;;;;31.17;20.33;;;1.10;1.00;;;-0.49;100.00;101840.09;5013681;28;20080;-77
2024/01/13 00:16:58;;;;;;;31.05;19.52;;;1.00;1.00;;;-0.55;100.00;101844.97;5012574;28;20145;-78
2024/01/13 00:19:25;;;;;;;29.20;18.50;;;1.10;1.00;;;-0.53;100.00;101831.31;5021869;28;20064;-78
2024/01/13 00:21:53;;;;;;;31.67;18.98;;;1.00;1.00;;;-0.67;100.00;101820.34;5015669;28;20124;-78
2024/01/13 00:24:20;;;;;;;29.98;19.02;;;1.00;1.00;;;-0.81;100.00;101798.16;5007375;28;20047;-78
2024/01/13 00:26:50;;;;;;;31.77;21.50;;;0.90;1.00;;;-0.70;100.00;101799.53;5025872;28;20049;-78
2024/01/13 00:29:17;;;;;;;36.45;21.00;;;1.00;1.00;;;-0.78;100.00;101798.28;5012333;28;20056;-78
2024/01/13 00:31:44;;;;;;;31.98;21.13;;;1.00;1.00;;;-0.69;100.00;101785.78;5012566;28;20051;-78
2024/01/13 00:34:11;;;;;;;36.40;21.67;;;1.00;1.00;;;-0.74;100.00;101775.25;5020161;28;20063;-78
2024/01/13 00:36:38;;;;;;;78.03;38.47;;;1.20;1.00;;;-0.84;100.00;101754.94;5021061;28;20036;-78
2024/01/13 00:39:05;;;;;;;198.23;83.65;;;1.30;1.00;;;-0.65;100.00;101792.88;5030992;28;20435;-78
2024/01/13 00:41:33;;;;;;;292.77;139.30;;;1.00;1.00;;;-0.73;100.00;101791.63;5033134;28;20581;-77
2024/01/13 00:44:00;;;;;;;68.38;53.10;;;1.10;1.00;;;-0.86;100.00;101754.00;5014913;28;20065;-78
2024/01/13 00:46:27;;;;;;;86.97;78.22;;;1.10;1.00;;;-0.71;100.00;101792.56;5002550;28;20057;-78
2024/01/13 00:48:54;;;;;;;39.53;35.22;;;0.80;1.00;;;-0.93;100.00;101768.34;5025307;28;20503;-77
2024/01/13 00:51:21;;;;;;;40.80;29.80;;;0.80;1.00;;;-0.74;100.00;101803.69;5024209;28;20045;-77
2024/01/13 00:53:48;;;;;;;38.72;23.55;;;1.00;1.00;;;-0.87;100.00;101785.84;5025608;28;20038;-77
2024/01/13 00:56:15;;;;;;;35.97;27.20;;;0.90;1.00;;;-0.77;100.00;101803.53;5019497;28;20092;-78
2024/01/13 00:58:42;;;;;;;35.00;21.83;;;1.60;1.00;;;-0.67;100.00;101803.94;5028212;28;20136;-78
2024/01/13 01:01:13;;;;;;;36.42;25.48;;;2.10;1.00;;;-0.76;100.00;101779.47;5044422;28;20060;-78
2024/01/13 01:03:43;;;;;;;33.47;21.45;;;0.90;1.00;;;-0.61;100.00;101789.59;5040737;28;20044;-78
2024/01/13 01:06:11;;;;;;;36.22;24.77;;;0.80;1.00;;;-1.20;100.00;101699.09;5040445;28;20046;-78
2024/01/13 01:08:39;;;;;;;32.78;21.58;;;1.60;1.00;;;-0.70;100.00;101777.97;5018286;28;20091;-78
2024/01/13 01:11:08;;;;;;;34.58;21.98;;;0.80;1.00;;;-0.80;100.00;101759.44;5012068;28;20045;-78
2024/01/13 01:13:37;;;;;;;32.53;20.38;;;0.80;1.00;;;-0.89;100.00;101759.91;5005096;28;20045;-77
2024/01/13 01:16:05;;;;;;;32.30;21.42;;;0.60;1.00;;;-0.90;100.00;101763.31;5021000;28;20386;-78
2024/01/13 01:18:32;;;;;;;33.92;21.15;;;0.90;1.00;;;-0.87;100.00;101770.31;5036045;28;20056;-77
2024/01/13 01:21:15;;;;;;;34.40;20.73;;;0.90;1.00;;;-0.70;100.00;101806.38;5015131;28;20095;-78
2024/01/13 01:23:48;;;;;;;33.60;20.52;;;0.70;1.00;;;-0.67;100.00;101799.66;5047431;28;20045;-77
2024/01/13 01:26:19;;;;;;;34.03;20.38;;;0.90;1.00;;;-0.69;100.00;101797.81;5048569;28;20041;-77
2024/01/13 01:28:46;;;;;;;37.15;23.20;;;2.70;1.00;;;-1.03;100.00;101722.22;5049658;28;20474;-77
2024/01/13 01:31:13;;;;;;;39.05;23.60;;;0.00;1.00;;;-0.83;100.00;101748.09;5027132;28;20092;-77
2024/01/13 01:33:41;;;;;;;36.97;22.85;;;0.80;1.00;;;-0.74;100.00;101766.59;5025663;28;20044;-78
2024/01/13 01:36:08;;;;;;;38.45;23.17;;;0.90;1.00;;;-0.93;100.00;101747.66;5015653;28;20034;-78
2024/01/13 01:38:36;;;;;;;38.03;22.85;;;0.90;1.00;;;-1.01;100.00;101723.19;5031523;28;20218;-78
2024/01/13 01:41:14;;;;;;;37.40;22.42;;;-0.40;1.00;;;-0.81;100.00;101769.72;5016182;28;20049;-77
2024/01/13 01:43:43;;;;;;;38.75;23.58;;;1.00;1.00;;;-0.87;100.00;101729.84;5045304;28;20045;-77
2024/01/13 01:46:13;;;;;;;40.10;24.92;;;0.90;1.00;;;-0.79;100.00;101729.31;5011421;28;20052;-77
2024/01/13 01:48:43;;;;;;;37.97;24.27;;;0.90;1.00;;;-0.68;100.00;101753.94;5048654;28;20111;-78
2024/01/13 01:51:16;;;;;;;35.17;22.50;;;0.70;1.00;;;-0.86;100.00;101731.66;5015463;28;20100;-78
2024/01/13 01:53:46;;;;;;;38.17;22.95;;;1.00;1.00;;;-1.08;100.00;101703.06;4998646;28;20041;-77
2024/01/13 01:56:20;;;;;;;40.70;26.00;;;0.90;1.00;;;-0.82;100.00;101739.53;5007025;28;20495;-78
2024/01/13 01:58:49;;;;;;;38.30;23.00;;;1.00;1.00;;;-0.82;100.00;101737.81;5012213;28;20515;-77
2024/01/13 02:01:17;;;;;;;37.47;23.40;;;1.00;1.00;;;-0.78;100.00;101738.84;5018012;28;20072;-77
2024/01/13 02:03:46;;;;;;;42.22;25.88;;;1.00;1.00;;;-0.59;100.00;101758.66;5001953;28;20045;-78
2024/01/13 02:06:16;;;;;;;38.80;23.35;;;1.00;1.00;;;-0.80;100.00;101712.03;5032154;28;20048;-77
2024/01/13 02:08:46;;;;;;;35.67;22.63;;;0.90;1.00;;;-0.77;100.00;101726.00;5018756;28;20036;-78
2024/01/13 02:11:13;;;;;;;38.65;24.85;;;1.10;1.00;;;-0.53;100.00;101750.28;5022248;28;20575;-78
2024/01/13 02:13:45;;;;;;;35.70;20.73;;;1.00;1.00;;;-0.74;100.00;101726.13;5026208;28;20052;-78
2024/01/13 02:16:13;;;;;;;;;;;1.30;1.00;;;-0.55;100.00;101754.47;5019084;28;20059;-78
2024/01/13 02:18:40;;;;;;;33.75;22.20;;;1.00;1.00;;;-0.78;100.00;101731.09;5014678;28;19955;-78
2024/01/13 02:21:11;;;;;;;31.08;20.55;;;1.30;1.00;;;-0.81;100.00;101718.91;5020000;28;20072;-78
2024/01/13 02:23:41;;;;;;;33.53;20.58;;;0.90;1.00;;;-0.60;100.00;101743.94;5030398;28;20037;-78
2024/01/13 02:26:08;;;;;;;36.22;21.13;;;0.80;1.00;;;-0.91;100.00;101696.94;5026297;28;20045;-78
2024/01/13 02:28:35;;;;;;;32.92;20.42;;;1.10;1.00;;;-1.04;100.00;101677.44;5043353;28;20076;-78
2024/01/13 02:31:17;;;;;;;34.08;19.70;;;0.90;1.00;;;-0.77;100.00;101735.44;5003986;28;20445;-78
2024/01/13 02:33:52;;;;;;;33.95;20.60;;;0.80;1.00;;;-0.98;100.00;101702.66;5011602;28;20144;-78
2024/01/13 02:36:22;;;;;;;34.10;20.42;;;0.80;1.00;;;-0.91;100.00;101711.56;5025142;28;20399;-77
2024/01/13 02:38:51;;;;;;;39.40;23.08;;;0.80;1.00;;;-0.78;100.00;101734.56;5022353;28;20037;-78
2024/01/13 02:41:18;;;;;;;32.25;22.13;;;0.80;1.00;;;-0.78;100.00;101751.75;5012833;28;20040;-78
2024/01/13 02:43:45;;;;;;;34.28;21.45;;;0.90;1.00;;;-0.97;100.00;101709.59;4997646;28;20045;-77
2024/01/13 02:46:12;;;;;;;38.10;21.83;;;0.90;1.00;;;-0.97;100.00;101719.03;5009660;28;20129;-78
2024/01/13 02:48:54;;;;;;;29.65;20.63;;;0.90;1.00;;;-0.84;100.00;101734.28;5017690;28;20045;-78
2024/01/13 02:51:21;;;;;;;32.72;20.10;;;0.80;1.00;;;-0.89;100.00;101715.97;5006687;28;20041;-78
2024/01/13 02:53:48;;;;;;;31.33;20.55;;;0.70;1.00;;;-0.86;100.00;101717.81;5036037;28;20060;-77
2024/01/13 02:56:16;;;;;;;32.90;20.48;;;0.80;1.00;;;-0.97;100.00;101707.00;5035710;28;20037;-77
2024/01/13 02:58:43;;;;;;;29.52;17.92;;;0.90;1.00;;;-0.99;100.00;101706.06;5028858;28;20061;-78
2024/01/13 03:01:14;;;;;;;28.63;19.55;;;0.90;1.00;;;-0.97;100.00;101700.94;5012212;28;20467;-78
2024/01/13 03:03:45;;;;;;;29.58;18.58;;;0.70;1.00;;;-1.33;100.00;101622.75;5041499;28;20045;-78
2024/01/13 03:06:12;;;;;;;29.55;18.40;;;0.70;1.00;;;-0.93;100.00;101687.38;5016358;28;20057;-78
2024/01/13 03:08:40;;;;;;;30.50;18.15;;;0.70;1.00;;;-0.95;100.00;101681.22;5008325;28;20536;-78
2024/01/13 03:11:11;;;;;;;29.40;18.57;;;0.80;1.00;;;-1.10;100.00;101655.59;5020972;28;20565;-78
2024/01/13 03:13:39;;;;;;;26.58;17.67;;;0.90;1.00;;;-0.80;100.00;101709.47;5013704;28;20279;-78
2024/01/13 03:16:06;;;;;;;23.85;16.02;;;0.80;1.00;;;-1.11;100.00;101666.75;4998730;28;20041;-78
2024/01/13 03:18:34;;;;;;;29.25;16.88;;;1.00;1.00;;;-1.40;100.00;101628.47;5014981;28;20037;-78
2024/01/13 03:21:08;;;;;;;26.42;14.77;;;0.60;1.00;;;-1.30;100.00;101645.28;5028446;28;20037;-77
2024/01/13 03:23:36;;;;;;;29.42;18.08;;;0.80;1.00;;;-1.33;100.00;101632.19;4998395;28;20037;-78
2024/01/13 03:26:03;;;;;;;22.85;16.13;;;1.30;1.00;;;-1.26;100.00;101639.41;5008647;28;20476;-77
2024/01/13 03:28:30;;;;;;;22.50;14.88;;;0.60;1.00;;;-1.60;100.00;101609.50;4996576;28;20124;-78
2024/01/13 03:31:12;;;;;;;25.95;16.02;;;2.20;1.00;;;-1.29;100.00;101659.94;4999612;28;20041;-78
2024/01/13 03:33:43;;;;;;;22.20;14.07;;;0.40;1.00;;;-1.31;100.00;101648.66;5012090;28;20056;-78
2024/01/13 03:36:11;;;;;;;24.80;15.15;;;0.70;1.00;;;-1.02;100.00;101686.13;5012345;28;20045;-77
2024/01/13 03:38:39;;;;;;;22.35;14.82;;;2.70;1.00;;;-1.29;100.00;101650.47;5020848;28;20095;-78
2024/01/13 03:41:17;;;;;;;29.30;17.98;;;0.80;1.00;;;-0.92;100.00;101684.84;5020767;28;20045;-78
2024/01/13 03:43:45;;;;;;;29.13;17.42;;;0.40;1.00;;;-1.17;100.00;101649.28;5039278;28;20584;-78
2024/01/13 03:46:13;;;;;;;29.30;18.38;;;0.60;1.00;;;-1.31;100.00;101597.88;5014666;28;20075;-78
2024/01/13 03:48:40;;;;;;;27.88;17.73;;;0.80;1.00;;;-0.96;100.00;101657.09;5012888;28;20072;-78
2024/01/13 03:51:09;;;;;;;29.35;18.42;;;0.60;1.00;;;-0.97;100.00;101636.34;5004042;28;20083;-78
2024/01/13 03:53:37;;;;;;;33.75;19.02;;;0.80;1.00;;;-1.56;100.00;101539.13;5015457;28;20140;-78
2024/01/13 03:56:04;;;;;;;26.17;16.00;;;0.80;1.00;;;-0.76;100.00;101677.75;5032881;28;20098;-78
2024/01/13 03:58:33;;;;;;;27.20;16.35;;;0.80;1.00;;;-0.85;100.00;101662.72;5021962;28;20423;-78
2024/01/13 04:01:02;;;;;;;29.52;17.13;;;0.70;1.00;;;-1.02;100.00;101636.13;5002406;28;20410;-78
2024/01/13 04:03:29;;;;;;;26.90;17.33;;;1.00;1.00;;;-1.26;100.00;101616.19;5021930;28;20183;-77
2024/01/13 04:05:58;;;;;;;26.98;17.17;;;0.50;1.00;;;-1.43;100.00;101598.22;5044091;28;20041;-77
2024/01/13 04:08:25;;;;;;;26.05;17.30;;;0.70;1.00;;;-1.00;100.00;101665.53;5016443;28;20041;-78
2024/01/13 04:10:52;;;;;;;24.55;16.20;;;0.70;1.00;;;-1.01;100.00;101656.03;5016520;28;20060;-78
2024/01/13 04:13:21;;;;;;;26.40;16.73;;;0.80;1.00;;;-1.39;100.00;101591.50;5031893;28;20458;-77
2024/01/13 04:15:48;;;;;;;24.45;16.25;;;1.00;1.00;;;-1.04;100.00;101649.00;5022956;28;20396;-77
2024/01/13 04:18:14;;;;;;;24.90;16.15;;;0.90;1.00;;;-1.08;100.00;101630.72;5024046;28;20056;-78
2024/01/13 04:20:42;;;;;;;27.65;16.17;;;0.60;1.00;;;-1.15;100.00;101611.47;5005719;28;20077;-78
2024/01/13 04:23:09;;;;;;;26.30;15.25;;;0.50;1.00;;;-1.22;100.00;101612.03;4995743;28;20565;-78
2024/01/13 04:25:36;;;;;;;29.00;17.00;;;0.80;1.00;;;-1.26;100.00;101590.34;5011729;28;20106;-78
2024/01/13 04:28:03;;;;;;;24.48;15.10;;;0.70;1.00;;;-1.11;100.00;101620.25;5018185;28;20053;-78
2024/01/13 04:30:30;;;;;;;24.73;15.15;;;0.70;1.00;;;-1.15;100.00;101616.66;5005409;28;20076;-78
2024/01/13 04:32:58;;;;;;;27.00;16.70;;;0.70;1.00;;;-0.83;100.00;101652.47;5012170;28;20045;-77
2024/01/13 04:35:26;;;;;;;33.08;17.70;;;0.80;1.00;;;-0.76;100.00;101647.63;5011548;28;20042;-78
2024/01/13 04:37:55;;;;;;;24.65;16.92;;;0.80;1.00;;;-0.93;100.00;101628.81;5043249;28;20054;-78
2024/01/13 04:40:22;;;;;;;27.08;17.05;;;0.70;1.00;;;-1.15;100.00;101599.47;5009040;28;20053;-78
2024/01/13 04:42:49;;;;;;;26.98;16.67;;;1.40;1.00;;;-1.15;100.00;101604.63;5008417;28;20120;-78
2024/01/13 04:45:16;;;;;;;27.45;15.55;;;0.70;1.00;;;-1.16;100.00;101600.28;5032903;28;20041;-78
2024/01/13 04:47:44;;;;;;;30.77;17.20;;;0.70;1.00;;;-1.16;100.00;101596.81;5017408;28;20044;-78
2024/01/13 04:50:11;;;;;;;27.50;16.40;;;0.60;1.00;;;-1.22;100.00;101605.16;4994183;28;20073;-78
2024/01/13 04:52:40;;;;;;;28.52;17.52;;;0.70;1.00;;;-1.21;100.00;101600.88;5015422;28;20048;-77
2024/01/13 04:55:07;;;;;;;44.58;28.88;;;0.60;1.00;;;-1.36;100.00;101593.31;5009187;28;20046;-77
2024/01/13 04:57:34;;;;;;;31.33;23.90;;;0.30;1.00;;;-1.01;100.00;101649.13;5006258;28;20147;-78
2024/01/13 05:00:01;;;;;;;28.95;21.60;;;0.50;1.00;;;-1.23;100.00;101618.03;5032070;28;20051;-78
2024/01/13 05:02:28;;;;;;;30.60;20.98;;;0.30;1.00;;;-1.08;100.00;101647.13;5003714;28;20458;-78
2024/01/13 05:04:57;;;;;;;29.90;17.48;;;0.20;1.00;;;-1.04;100.00;101651.59;5017738;28;20041;-77
2024/01/13 05:07:27;;;;;;;25.15;16.90;;;0.20;1.00;;;-1.03;100.00;101650.78;5041706;28;20143;-78
2024/01/13 05:09:54;;;;;;;25.95;16.05;;;0.60;1.00;;;-1.09;100.00;101634.13;5039677;28;20041;-77
2024/01/13 05:12:21;;;;;;;26.85;17.08;;;0.30;1.00;;;-1.20;100.00;101611.28;5015404;28;20052;-78
2024/01/13 05:14:48;;;;;;;33.58;19.00;;;0.60;1.00;;;-1.05;100.00;101638.59;5014340;28;20041;-79
2024/01/13 05:17:15;;;;;;;62.17;29.33;;;0.90;1.00;;;-1.50;100.00;101574.66;5041784;28;20049;-78
2024/01/13 05:19:42;;;;;;;189.20;96.18;;;0.60;1.00;;;-1.13;100.00;101652.88;5008659;28;20037;-79
2024/01/13 05:22:09;;;;;;;47.53;28.48;;;0.60;1.00;;;-1.06;100.00;101636.84;5013728;28;20052;-77
2024/01/13 05:24:36;;;;;;;33.60;22.55;;;0.60;1.00;;;-1.16;100.00;101631.28;5020587;28;20111;-77
2024/01/13 05:27:03;;;;;;;33.05;21.13;;;0.80;1.00;;;-1.30;100.00;101609.97;5010981;28;20033;-77
2024/01/13 05:29:30;;;;;;;32.97;21.55;;;0.80;1.00;;;-1.25;100.00;101625.69;5019026;28;20577;-77
2024/01/13 05:31:57;;;;;;;39.72;23.00;;;0.00;1.00;;;-1.68;100.00;101565.28;5041342;28;20051;-78
2024/01/13 05:34:24;;;;;;;35.10;21.80;;;-0.10;2.70;;;-1.43;100.00;101605.97;5032907;28;20044;-77
2024/01/13 05:36:55;;;;;;;122.82;82.88;;;0.00;6.30;;;-1.63;100.00;101565.47;5020499;28;20048;-78
2024/01/13 05:39:22;;;;;;;199.18;122.28;;;0.20;6.70;;;-1.34;100.00;101630.44;5027666;28;20061;-78
2024/01/13 05:41:49;;;;;;;57.25;38.72;;;1.30;7.50;;;-1.48;100.00;101592.00;5004653;28;20038;-78
2024/01/13 05:44:16;;;;;;;36.08;20.70;;;0.30;7.40;;;-1.42;100.00;101601.69;5015065;28;20080;-78
2024/01/13 05:46:43;;;;;;;33.88;19.25;;;0.20;2.60;;;-1.37;100.00;101632.88;5024169;28;20091;-78
2024/01/13 05:49:10;;;;;;;34.83;23.35;;;1.20;1.00;;;-1.35;100.00;101642.47;5053064;28;20088;-77
2024/01/13 05:51:37;;;;;;;37.47;22.50;;;0.40;1.00;;;-1.41;100.00;101636.16;5016584;28;20049;-78
2024/01/13 05:54:04;;;;;;;30.17;18.05;;;0.00;1.00;;;-1.46;100.00;101626.50;5000308;28;20140;-78
2024/01/13 05:56:31;;;;;;;35.63;21.08;;;0.80;1.00;;;-1.74;100.00;101560.69;5019155;28;20045;-77
2024/01/13 05:58:59;;;;;;;32.22;19.08;;;0.40;1.00;;;-1.60;100.00;101583.69;5029761;28;20075;-78
2024/01/13 06:01:26;;;;;;;33.08;17.55;;;0.50;1.00;;;-1.33;100.00;101624.44;5020391;28;20055;-78
2024/01/13 06:03:55;;;;;;;30.50;19.00;;;0.80;1.00;;;-1.76;100.00;101557.19;5023351;28;20052;-77
2024/01/13 06:06:22;;;;;;;28.25;18.50;;;0.30;1.00;;;-1.61;100.00;101587.06;5033793;28;20068;-78
2024/01/13 06:08:49;;;;;;;32.30;21.20;;;0.10;1.00;;;-1.75;100.00;101553.78;5017014;28;20045;-78
2024/01/13 06:11:16;;;;;;;34.83;19.25;;;0.10;1.00;;;-1.72;100.00;101543.59;5038861;28;20118;-78
2024/01/13 06:13:43;;;;;;;32.03;20.25;;;0.40;1.00;;;-1.40;100.00;101601.75;5038146;28;20048;-78
2024/01/13 06:16:10;;;;;;;35.58;20.30;;;-0.10;1.00;;;-1.59;100.00;101554.47;4992287;28;20099;-76
2024/01/13 06:18:38;;;;;;;34.65;19.10;;;0.40;1.00;;;-1.41;100.00;101582.78;5010855;28;20045;-76
2024/01/13 06:21:05;;;;;;;31.23;18.50;;;0.80;1.00;;;-1.58;100.00;101562.25;5017528;28;20132;-78
2024/01/13 06:23:32;;;;;;;33.60;20.33;;;0.30;1.00;;;-1.31;100.00;101591.84;5014253;28;20048;-78
2024/01/13 06:26:00;;;;;;;33.42;18.73;;;1.00;1.00;;;-1.41;100.00;101558.69;4998702;28;20414;-78
2024/01/13 06:28:27;;;;;;;34.50;20.52;;;0.30;1.00;;;-1.32;100.00;101569.44;5014728;28;20057;-78
2024/01/13 06:30:54;;;;;;;36.90;20.85;;;0.30;1.00;;;-1.11;100.00;101590.13;5019416;28;20090;-78
2024/01/13 06:33:21;;;;;;;30.05;19.02;;;0.80;1.00;;;-1.68;100.00;101481.78;5043680;28;20049;-77
2024/01/13 06:35:49;;;;;;;32.78;20.15;;;0.40;1.00;;;-1.55;100.00;101502.16;5030556;28;20075;-78
2024/01/13 06:38:16;;;;;;;35.72;21.80;;;0.70;1.00;;;-1.23;100.00;101545.72;5014354;28;20048;-78
2024/01/13 06:40:43;;;;;;;33.13;20.48;;;0.80;1.00;;;-1.39;100.00;101520.91;5014405;28;20128;-78
2024/01/13 06:43:10;;;;;;;40.92;26.70;;;0.40;1.00;;;-1.50;100.00;101518.72;5012126;28;20693;-77
2024/01/13 06:45:38;;;;;;;41.03;27.58;;;0.60;1.00;;;-1.18;100.00;101586.38;5015069;28;20412;-78
2024/01/13 06:48:05;;;;;;;76.68;57.70;;;0.50;1.00;;;-1.94;100.00;101484.97;5028014;28;20056;-77
2024/01/13 06:50:36;;;;;;;150.90;97.18;;;0.30;1.00;;;-1.73;100.00;101518.59;5017752;28;20462;-78
2024/01/13 06:53:16;;;;;;;70.75;53.38;;;0.10;1.00;;;-1.40;100.00;101573.34;5021769;28;20528;-78
2024/01/13 06:55:44;;;;;;;62.97;50.60;;;0.10;1.00;;;-1.73;100.00;101526.34;4997495;28;20053;-78
2024/01/13 06:58:15;;;;;;;53.92;45.03;;;0.20;1.00;;;-2.31;100.00;101444.63;5006252;28;20057;-78
2024/01/13 07:00:49;;;;;;;66.43;49.05;;;0.30;1.00;;;-1.59;100.00;101542.44;5005022;28;20087;-78
2024/01/13 07:03:19;;;;;;;49.25;34.47;;;0.40;1.00;;;-1.55;100.00;101545.19;5013932;28;20408;-78
2024/01/13 07:05:52;;;;;;;77.20;59.92;;;0.10;1.00;;;-1.78;100.00;101507.19;5018694;28;20049;-78
2024/01/13 07:08:19;;;;;;;77.97;63.25;;;0.20;1.00;;;-1.68;100.00;101511.06;5013072;28;20044;-78
2024/01/13 07:10:50;;;;;;;71.10;57.80;;;0.70;1.00;;;-1.63;100.00;101519.88;5008784;28;20045;-78
2024/01/13 07:13:18;;;;;;;74.55;64.10;;;-0.10;1.00;;;-2.19;100.00;101441.72;5040052;28;20418;-77
2024/01/13 07:15:45;;;;;;;47.08;36.45;;;0.30;5.10;;;-1.65;100.00;101512.88;5014724;28;20514;-77
2024/01/13 07:18:12;;;;;;;43.47;29.45;;;-0.10;2.30;;;-1.65;100.00;101518.03;5047262;28;20048;-77
2024/01/13 07:20:39;;;;;;;44.63;31.92;;;0.20;2.70;;;-1.82;100.00;101486.34;5020536;28;20049;-77
2024/01/13 07:23:15;;;;;;;;;;;-0.10;5.00;;;-1.75;100.00;101519.34;4999574;28;20099;-78
2024/01/13 07:25:42;;;;;;;46.28;34.67;;;0.10;9.60;;;-1.64;100.00;101545.63;5031519;28;20616;-77
2024/01/13 07:28:09;;;;;;;39.05;24.33;;;-0.70;9.30;;;-1.80;100.00;101537.19;5024724;28;20045;-78
2024/01/13 07:30:36;;;;;;;39.33;24.23;;;1.00;11.80;;;-1.64;100.00;101550.78;5018323;28;20140;-77
2024/01/13 07:33:04;;;;;;;41.55;25.88;;;0.70;13.50;;;-2.40;100.00;101455.41;5007895;28;20052;-77
2024/01/13 07:35:31;;;;;;;37.80;23.90;;;0.60;14.70;;;-1.57;100.00;101558.00;5048589;28;20041;-78
2024/01/13 07:37:58;;;;;;;35.85;22.48;;;1.80;15.50;;;-1.54;100.00;101562.44;5014135;28;20132;-78
2024/01/13 07:40:26;;;;;;;39.95;21.48;;;1.70;18.30;;;-1.67;100.00;101548.06;5023860;28;20060;-77
2024/01/13 07:42:53;;;;;;;42.72;24.13;;;0.10;17.00;;;-1.86;100.00;101512.00;5029585;28;20633;-78
2024/01/13 07:45:20;;;;;;;37.83;22.90;;;0.10;15.70;;;-1.64;100.00;101530.13;4997945;28;20140;-78
2024/01/13 07:47:49;;;;;;;35.58;20.77;;;-0.30;14.50;;;-2.03;100.00;101466.47;5001139;28;20041;-77
2024/01/13 07:50:17;;;;;;;40.33;22.73;;;0.40;10.70;;;-1.91;100.00;101487.69;5008876;28;20072;-80
2024/01/13 07:52:45;;;;;;;36.53;22.05;;;-0.40;10.00;;;-2.52;100.00;101405.84;5008940;28;20082;-79
2024/01/13 07:55:12;;;;;;;32.30;19.20;;;0.20;7.00;;;-1.69;100.00;101504.16;5020994;28;20083;-79
2024/01/13 07:57:39;;;;;;;35.13;20.67;;;1.70;11.40;;;-1.63;100.00;101548.28;5017354;28;20053;-78
2024/01/13 08:00:07;;;;;;;32.30;20.27;;;0.20;1.00;;;-1.89;100.00;101480.03;5001074;28;20052;-79
2024/01/13 08:02:39;;;;;;;37.88;21.13;;;0.10;1.00;;;-1.71;100.00;101503.19;5004189;28;20091;-78
2024/01/13 08:05:06;;;;;;;42.40;27.92;;;0.40;1.00;;;-1.51;100.00;101540.19;5019005;28;20107;-77
2024/01/13 08:07:34;;;;;;;42.45;26.58;;;0.40;1.00;;;-1.40;100.00;101553.59;5015572;28;20056;-77
2024/01/13 08:10:02;;;;;;;36.33;21.00;;;0.10;1.00;;;-1.98;100.00;101475.34;5007307;28;20516;-78
2024/01/13 08:12:29;;;;;;;41.42;24.75;;;-0.10;1.00;;;-1.68;100.00;101492.09;5032933;28;20930;-78
2024/01/13 08:14:57;;;;;;;40.05;23.63;;;1.60;1.00;;;-1.34;100.00;101556.44;5017100;28;20036;-77
2024/01/13 08:17:25;;;;;;;40.22;23.10;;;0.00;1.00;;;-1.61;100.00;101518.25;5000597;28;20053;-77
2024/01/13 08:19:52;;;;;;;39.90;21.00;;;0.20;1.00;;;-1.53;100.00;101522.91;4997611;28;20048;-77
2024/01/13 08:22:19;;;;;;;35.22;20.70;;;0.20;3.10;;;-1.48;100.00;101542.94;5007808;28;20495;-78
2024/01/13 08:24:46;;;;;;;37.83;21.30;;;0.40;1.00;;;-1.29;100.00;101559.22;5013987;28;20072;-78
2024/01/13 08:27:13;;;;;;;40.03;27.50;;;0.90;2.10;;;-1.46;100.00;101545.56;5000653;28;20045;-77
2024/01/13 08:29:40;;;;;;;37.75;26.33;;;1.20;1.00;;;-1.97;100.00;101474.53;5016429;28;20140;-77
2024/01/13 08:32:07;;;;;;;37.05;21.83;;;1.10;1.00;;;-1.21;100.00;101560.44;5017661;28;20069;-77
2024/01/13 08:34:36;;;;;;;35.63;21.95;;;1.90;1.00;;;-1.16;100.00;101582.19;5009526;28;20055;-77
2024/01/13 08:37:05;;;;;;;33.70;20.98;;;0.00;1.00;;;-1.20;100.00;101561.31;5009127;28;20041;-78
2024/01/13 08:39:33;;;;;;;36.22;21.38;;;0.20;1.00;;;-1.15;100.00;101570.16;5012281;28;20128;-78
2024/01/13 08:42:00;;;;;;;33.78;22.48;;;1.30;1.00;;;-1.11;100.00;101584.97;5027478;28;20057;-77
2024/01/13 08:44:27;;;;;;;33.70;21.00;;;0.50;1.00;;;-1.05;100.00;101568.84;5005507;28;20099;-77
2024/01/13 08:46:55;;;;;;;30.95;20.65;;;0.80;1.00;;;-1.60;100.00;101485.59;5008284;28;20083;-78
2024/01/13 08:49:22;;;;;;;32.60;19.30;;;0.80;1.00;;;-1.15;100.00;101539.16;5016143;28;20119;-78
2024/01/13 08:51:49;;;;;;;34.05;21.50;;;-1.50;1.00;;;-1.12;100.00;101565.09;5012041;28;20041;-78
2024/01/13 08:54:18;;;;;;;37.38;23.58;;;0.70;1.00;;;-1.20;100.00;101546.69;5020084;28;20053;-78
2024/01/13 08:56:45;;;;;;;34.35;20.95;;;0.70;1.00;;;-1.47;100.00;101502.50;5034150;28;20053;-78
2024/01/13 08:59:13;;;;;;;25.98;19.48;;;0.60;1.00;;;-1.44;100.00;101534.50;5019321;28;20120;-77
2024/01/13 09:01:44;;;;;;;29.38;19.48;;;0.60;1.00;;;-0.97;100.00;101576.91;4988099;28;20807;-77
2024/01/13 09:04:12;;;;;;;26.70;18.27;;;2.90;1.00;;;-1.18;100.00;101516.66;4995095;28;20046;-78
2024/01/13 09:06:42;;;;;;;31.67;18.50;;;0.50;1.00;;;-1.23;100.00;101528.50;4983184;28;20058;-79
2024/01/13 09:09:10;;;;;;;;;;;0.30;1.00;;;-1.24;100.00;101538.78;4962378;28;20118;-79
2024/01/13 09:11:41;;;;;;;27.08;17.05;;;0.80;1.00;;;-1.35;100.00;101520.22;4979328;28;20411;-78
2024/01/13 09:14:11;;;;;;;28.23;17.48;;;0.40;1.00;;;-1.59;100.00;101483.06;4975986;28;20048;-78
2024/01/13 09:16:41;;;;;;;30.23;19.00;;;0.40;1.00;;;-1.20;100.00;101518.28;4985578;28;20078;-77
2024/01/13 09:19:11;;;;;;;31.33;19.15;;;2.40;1.00;;;-1.31;100.00;101491.16;4987955;28;20717;-77
2024/01/13 09:21:40;;;;;;;36.00;23.00;;;0.60;1.00;;;-2.23;100.00;101334.97;4975274;28;20046;-77
2024/01/13 09:24:16;;;;;;;27.25;17.55;;;0.60;1.00;;;-1.98;100.00;101351.53;4958038;28;20054;-77
2024/01/13 09:26:44;;;;;;;28.63;17.63;;;0.80;1.00;;;-0.94;100.00;101518.53;4988202;28;20038;-77
2024/01/13 09:29:19;;;;;;;28.52;16.25;;;0.80;1.00;;;-0.88;100.00;101539.44;4939375;28;20051;-77
2024/01/13 09:31:53;;;;;;;23.45;15.82;;;1.80;1.00;;;-0.86;100.00;101548.16;4916718;28;20081;-78
2024/01/13 09:34:21;;;;;;;25.23;15.00;;;2.30;1.00;;;-2.33;100.00;101323.38;4957756;28;20141;-78
2024/01/13 09:36:49;;;;;;;25.20;15.18;;;0.50;1.00;;;-1.38;100.00;101455.53;4967814;28;20047;-78
2024/01/13 09:39:20;;;;;;;22.77;14.18;;;0.90;1.00;;;-1.53;100.00;101424.78;4977275;28;20050;-77
2024/01/13 09:41:49;;;;;;;;;;;0.50;1.00;;;-0.94;100.00;101543.47;4944305;28;20108;-78
2024/01/13 09:44:27;;;;;;;22.75;13.20;;;1.00;1.00;;;-1.07;100.00;101518.81;4976830;28;20021;-79
2024/01/13 09:47:01;;;;;;;24.52;14.43;;;1.00;1.00;;;-1.02;100.00;101501.78;4989777;28;20069;-77
2024/01/13 09:49:30;;;;;;;25.10;15.35;;;1.50;1.00;;;-1.09;100.00;101500.69;5030317;28;20037;-83
2024/01/13 09:52:06;;;;;;;19.80;13.40;;;0.20;1.00;;;-0.87;100.00;101535.16;5020904;28;20090;-79
2024/01/13 09:54:34;;;;;;;;;;;0.80;1.00;;;-0.97;100.00;101523.56;5036195;28;20041;-79
2024/01/13 09:57:01;;;;;;;23.88;13.98;;;1.20;99.90;;;-0.76;100.00;101540.78;5011895;28;19956;-78
2024/01/13 09:59:29;;;;;;;24.73;14.38;;;0.70;1.00;;;-0.74;100.00;101542.63;5018580;28;20061;-79
2024/01/13 10:02:01;;;;;;;24.55;13.20;;;1.10;1.00;;;-1.32;100.00;101463.56;5019540;28;20045;-79
2024/01/13 10:04:30;;;;;;;22.10;13.95;;;0.70;1.00;;;-1.40;100.00;101447.75;5029560;28;20055;-80
2024/01/13 10:06:58;;;;;;;22.17;13.80;;;0.40;1.00;;;-2.11;100.00;101352.66;5021646;28;20115;-80
2024/01/13 10:09:25;;;;;;;23.95;15.10;;;0.70;1.00;;;-0.83;100.00;101512.91;5017168;28;20045;-77
2024/01/13 10:12:07;;;;;;;20.23;12.98;;;0.70;1.00;;;-1.13;100.00;101460.03;5020923;28;20561;-78
2024/01/13 10:14:38;;;;;;;32.25;15.38;;;1.00;1.00;;;-0.97;100.00;101477.06;5015829;28;20049;-78